sensor_id;sensor_type;location;lat;lon;timestamp;P1;durP1;ratioP1;P2;durP2;ratioP2
19919;SDS011;10122;50.074;19.920;2022-09-17T00:00:58;14.27;;;9.90;;
19919;SDS011;10122;50.074;19.920;2022-09-17T00:03:24;14.15;;;9.82;;
19919;SDS011;10122;50.074;19.920;2022-09-17T00:05:57;14.57;;;9.68;;
19919;SDS011;10122;50.074;19.920;2022-09-17T00:08:27;12.85;;;9.35;;
19919;SDS011;10122;50.074;19.920;2022-09-17T00:10:53;12.35;;;9.27;;
19919;SDS011;10122;50.074;19.920;2022-09-17T00:13:19;13.18;;;10.07;;
19919;SDS011;10122;50.074;19.920;2022-09-17T00:15:45;13.90;;;9.65;;
19919;SDS011;10122;50.074;19.920;2022-09-17T00:18:11;12.80;;;9.38;;
19919;SDS011;10122;50.074;19.920;2022-09-17T00:20:39;15.38;;;9.35;;
19919;SDS011;10122;50.074;19.920;2022-09-17T00:23:10;14.68;;;9.40;;
19919;SDS011;10122;50.074;19.920;2022-09-17T00:25:38;14.23;;;9.82;;
19919;SDS011;10122;50.074;19.920;2022-09-17T00:28:05;15.57;;;10.05;;
19919;SDS011;10122;50.074;19.920;2022-09-17T00:30:31;15.73;;;10.13;;
19919;SDS011;10122;50.074;19.920;2022-09-17T00:32:56;13.63;;;9.55;;
19919;SDS011;10122;50.074;19.920;2022-09-17T00:35:25;13.77;;;9.68;;
19919;SDS011;10122;50.074;19.920;2022-09-17T00:37:51;17.23;;;10.40;;
19919;SDS011;10122;50.074;19.920;2022-09-17T00:40:17;16.35;;;10.63;;
19919;SDS011;10122;50.074;19.920;2022-09-17T00:42:44;14.52;;;10.07;;
19919;SDS011;10122;50.074;19.920;2022-09-17T00:45:11;14.82;;;10.32;;
19919;SDS011;10122;50.074;19.920;2022-09-17T00:47:38;14.80;;;9.82;;
19919;SDS011;10122;50.074;19.920;2022-09-17T00:50:11;14.57;;;10.52;;
19919;SDS011;10122;50.074;19.920;2022-09-17T00:52:41;15.55;;;10.23;;
19919;SDS011;10122;50.074;19.920;2022-09-17T00:55:18;14.48;;;9.63;;
19919;SDS011;10122;50.074;19.920;2022-09-17T00:57:57;12.88;;;8.80;;
19919;SDS011;10122;50.074;19.920;2022-09-17T01:00:25;15.40;;;9.45;;
19919;SDS011;10122;50.074;19.920;2022-09-17T01:02:52;13.40;;;9.20;;
19919;SDS011;10122;50.074;19.920;2022-09-17T01:05:24;13.98;;;9.00;;
19919;SDS011;10122;50.074;19.920;2022-09-17T01:16:01;14.40;;;9.93;;
19919;SDS011;10122;50.074;19.920;2022-09-17T01:18:59;15.43;;;10.40;;
19919;SDS011;10122;50.074;19.920;2022-09-17T01:21:31;15.00;;;9.35;;
19919;SDS011;10122;50.074;19.920;2022-09-17T01:24:16;15.13;;;9.75;;
19919;SDS011;10122;50.074;19.920;2022-09-17T01:29:54;13.00;;;9.90;;
19919;SDS011;10122;50.074;19.920;2022-09-17T01:32:41;14.25;;;9.95;;
19919;SDS011;10122;50.074;19.920;2022-09-17T01:35:13;13.88;;;10.20;;
19919;SDS011;10122;50.074;19.920;2022-09-17T01:40:23;14.90;;;10.55;;
19919;SDS011;10122;50.074;19.920;2022-09-17T01:42:59;14.30;;;9.80;;
19919;SDS011;10122;50.074;19.920;2022-09-17T01:45:44;17.20;;;10.52;;
19919;SDS011;10122;50.074;19.920;2022-09-17T01:48:22;14.40;;;10.02;;
19919;SDS011;10122;50.074;19.920;2022-09-17T01:51:04;14.68;;;9.93;;
19919;SDS011;10122;50.074;19.920;2022-09-17T01:56:35;14.82;;;10.13;;
19919;SDS011;10122;50.074;19.920;2022-09-17T01:59:22;13.57;;;9.55;;
19919;SDS011;10122;50.074;19.920;2022-09-17T02:01:54;14.95;;;10.38;;
19919;SDS011;10122;50.074;19.920;2022-09-17T02:04:34;14.68;;;10.02;;
19919;SDS011;10122;50.074;19.920;2022-09-17T02:07:06;14.65;;;10.15;;
19919;SDS011;10122;50.074;19.920;2022-09-17T02:09:44;14.05;;;9.35;;
19919;SDS011;10122;50.074;19.920;2022-09-17T02:12:17;16.35;;;9.98;;
19919;SDS011;10122;50.074;19.920;2022-09-17T02:14:48;13.00;;;9.63;;
19919;SDS011;10122;50.074;19.920;2022-09-17T02:17:38;14.93;;;9.93;;
19919;SDS011;10122;50.074;19.920;2022-09-17T02:20:09;13.55;;;9.07;;
19919;SDS011;10122;50.074;19.920;2022-09-17T02:22:41;12.07;;;8.73;;
19919;SDS011;10122;50.074;19.920;2022-09-17T02:25:14;13.57;;;9.45;;
19919;SDS011;10122;50.074;19.920;2022-09-17T02:30:49;15.25;;;10.55;;
19919;SDS011;10122;50.074;19.920;2022-09-17T02:33:15;17.08;;;11.18;;
19919;SDS011;10122;50.074;19.920;2022-09-17T02:35:42;14.65;;;11.20;;
19919;SDS011;10122;50.074;19.920;2022-09-17T02:38:08;15.75;;;11.75;;
19919;SDS011;10122;50.074;19.920;2022-09-17T02:40:35;16.17;;;11.82;;
19919;SDS011;10122;50.074;19.920;2022-09-17T02:43:25;17.88;;;11.45;;
19919;SDS011;10122;50.074;19.920;2022-09-17T02:46:16;14.93;;;11.02;;
19919;SDS011;10122;50.074;19.920;2022-09-17T02:54:40;11.23;;;8.60;;
19919;SDS011;10122;50.074;19.920;2022-09-17T02:59:51;12.05;;;9.13;;
19919;SDS011;10122;50.074;19.920;2022-09-17T03:02:49;13.43;;;8.75;;
19919;SDS011;10122;50.074;19.920;2022-09-17T03:05:20;10.50;;;7.80;;
19919;SDS011;10122;50.074;19.920;2022-09-17T03:07:47;9.85;;;8.10;;
19919;SDS011;10122;50.074;19.920;2022-09-17T03:10:13;11.30;;;8.30;;
19919;SDS011;10122;50.074;19.920;2022-09-17T03:12:40;9.88;;;8.00;;
19919;SDS011;10122;50.074;19.920;2022-09-17T03:15:06;13.57;;;9.27;;
19919;SDS011;10122;50.074;19.920;2022-09-17T03:17:32;11.80;;;8.77;;
19919;SDS011;10122;50.074;19.920;2022-09-17T03:19:58;11.73;;;9.07;;
19919;SDS011;10122;50.074;19.920;2022-09-17T03:22:24;13.70;;;9.20;;
19919;SDS011;10122;50.074;19.920;2022-09-17T03:24:49;11.13;;;8.55;;
19919;SDS011;10122;50.074;19.920;2022-09-17T03:27:15;12.02;;;8.50;;
19919;SDS011;10122;50.074;19.920;2022-09-17T03:29:41;11.98;;;8.27;;
19919;SDS011;10122;50.074;19.920;2022-09-17T03:32:06;12.52;;;8.57;;
19919;SDS011;10122;50.074;19.920;2022-09-17T03:34:32;14.95;;;8.77;;
19919;SDS011;10122;50.074;19.920;2022-09-17T03:36:58;12.40;;;8.85;;
19919;SDS011;10122;50.074;19.920;2022-09-17T03:39:24;19.85;;;9.77;;
19919;SDS011;10122;50.074;19.920;2022-09-17T03:41:49;14.82;;;9.48;;
19919;SDS011;10122;50.074;19.920;2022-09-17T03:44:15;12.95;;;8.57;;
19919;SDS011;10122;50.074;19.920;2022-09-17T03:46:43;12.00;;;8.40;;
19919;SDS011;10122;50.074;19.920;2022-09-17T03:49:09;9.85;;;7.60;;
19919;SDS011;10122;50.074;19.920;2022-09-17T03:51:35;13.30;;;9.02;;
19919;SDS011;10122;50.074;19.920;2022-09-17T03:54:01;14.48;;;9.05;;
19919;SDS011;10122;50.074;19.920;2022-09-17T03:56:27;11.95;;;8.48;;
19919;SDS011;10122;50.074;19.920;2022-09-17T03:58:59;11.50;;;8.40;;
19919;SDS011;10122;50.074;19.920;2022-09-17T04:01:26;12.82;;;8.25;;
19919;SDS011;10122;50.074;19.920;2022-09-17T04:03:52;13.63;;;8.52;;
19919;SDS011;10122;50.074;19.920;2022-09-17T04:06:18;11.98;;;7.93;;
19919;SDS011;10122;50.074;19.920;2022-09-17T04:08:44;12.63;;;8.15;;
19919;SDS011;10122;50.074;19.920;2022-09-17T04:11:10;11.85;;;8.07;;
19919;SDS011;10122;50.074;19.920;2022-09-17T04:13:35;10.15;;;7.90;;
19919;SDS011;10122;50.074;19.920;2022-09-17T04:16:01;10.40;;;7.90;;
19919;SDS011;10122;50.074;19.920;2022-09-17T04:18:27;10.23;;;7.68;;
19919;SDS011;10122;50.074;19.920;2022-09-17T04:20:53;10.75;;;7.50;;
19919;SDS011;10122;50.074;19.920;2022-09-17T04:23:19;12.10;;;7.93;;
19919;SDS011;10122;50.074;19.920;2022-09-17T04:25:44;13.23;;;7.55;;
19919;SDS011;10122;50.074;19.920;2022-09-17T04:28:10;12.18;;;7.80;;
19919;SDS011;10122;50.074;19.920;2022-09-17T04:30:36;10.80;;;7.95;;
19919;SDS011;10122;50.074;19.920;2022-09-17T04:33:02;10.55;;;7.90;;
19919;SDS011;10122;50.074;19.920;2022-09-17T04:35:28;11.88;;;8.10;;
19919;SDS011;10122;50.074;19.920;2022-09-17T04:37:54;9.50;;;6.80;;
19919;SDS011;10122;50.074;19.920;2022-09-17T04:40:23;11.95;;;7.53;;
19919;SDS011;10122;50.074;19.920;2022-09-17T04:42:54;10.27;;;7.70;;
19919;SDS011;10122;50.074;19.920;2022-09-17T04:45:21;8.88;;;7.10;;
19919;SDS011;10122;50.074;19.920;2022-09-17T04:47:47;11.43;;;7.15;;
19919;SDS011;10122;50.074;19.920;2022-09-17T04:50:15;10.20;;;7.07;;
19919;SDS011;10122;50.074;19.920;2022-09-17T04:52:44;8.30;;;6.90;;
19919;SDS011;10122;50.074;19.920;2022-09-17T04:55:10;10.52;;;7.07;;
19919;SDS011;10122;50.074;19.920;2022-09-17T04:57:37;10.70;;;6.90;;
19919;SDS011;10122;50.074;19.920;2022-09-17T05:00:03;9.23;;;6.55;;
19919;SDS011;10122;50.074;19.920;2022-09-17T05:02:33;9.07;;;6.53;;
19919;SDS011;10122;50.074;19.920;2022-09-17T05:04:59;10.02;;;7.10;;
19919;SDS011;10122;50.074;19.920;2022-09-17T05:07:25;10.68;;;7.15;;
19919;SDS011;10122;50.074;19.920;2022-09-17T05:09:50;10.07;;;6.65;;
19919;SDS011;10122;50.074;19.920;2022-09-17T05:12:17;9.20;;;7.07;;
19919;SDS011;10122;50.074;19.920;2022-09-17T05:14:43;10.68;;;7.40;;
19919;SDS011;10122;50.074;19.920;2022-09-17T05:17:09;12.73;;;7.43;;
19919;SDS011;10122;50.074;19.920;2022-09-17T05:19:34;12.07;;;7.85;;
19919;SDS011;10122;50.074;19.920;2022-09-17T05:22:00;10.90;;;7.90;;
19919;SDS011;10122;50.074;19.920;2022-09-17T05:24:25;13.32;;;8.10;;
19919;SDS011;10122;50.074;19.920;2022-09-17T05:26:51;12.50;;;7.72;;
19919;SDS011;10122;50.074;19.920;2022-09-17T05:29:17;11.63;;;7.53;;
19919;SDS011;10122;50.074;19.920;2022-09-17T05:31:43;11.05;;;7.20;;
19919;SDS011;10122;50.074;19.920;2022-09-17T05:34:08;10.68;;;7.38;;
19919;SDS011;10122;50.074;19.920;2022-09-17T05:36:34;9.32;;;7.03;;
19919;SDS011;10122;50.074;19.920;2022-09-17T05:38:59;11.85;;;7.15;;
19919;SDS011;10122;50.074;19.920;2022-09-17T05:41:26;10.05;;;7.45;;
19919;SDS011;10122;50.074;19.920;2022-09-17T05:43:51;8.40;;;6.70;;
19919;SDS011;10122;50.074;19.920;2022-09-17T05:46:17;8.82;;;6.68;;
19919;SDS011;10122;50.074;19.920;2022-09-17T05:48:42;8.57;;;6.30;;
19919;SDS011;10122;50.074;19.920;2022-09-17T05:51:08;9.10;;;6.43;;
19919;SDS011;10122;50.074;19.920;2022-09-17T05:53:34;8.13;;;5.80;;
19919;SDS011;10122;50.074;19.920;2022-09-17T05:55:59;8.90;;;5.55;;
19919;SDS011;10122;50.074;19.920;2022-09-17T05:58:25;7.60;;;6.10;;
19919;SDS011;10122;50.074;19.920;2022-09-17T06:00:51;8.23;;;5.72;;
19919;SDS011;10122;50.074;19.920;2022-09-17T06:03:18;7.32;;;5.40;;
19919;SDS011;10122;50.074;19.920;2022-09-17T06:05:53;7.80;;;5.43;;
19919;SDS011;10122;50.074;19.920;2022-09-17T06:08:20;8.45;;;5.57;;
19919;SDS011;10122;50.074;19.920;2022-09-17T06:10:47;7.15;;;4.80;;
19919;SDS011;10122;50.074;19.920;2022-09-17T06:13:13;8.00;;;5.13;;
19919;SDS011;10122;50.074;19.920;2022-09-17T06:15:39;8.25;;;4.93;;
19919;SDS011;10122;50.074;19.920;2022-09-17T06:18:05;9.55;;;5.20;;
19919;SDS011;10122;50.074;19.920;2022-09-17T06:20:31;7.10;;;5.13;;
19919;SDS011;10122;50.074;19.920;2022-09-17T06:22:57;6.93;;;4.63;;
19919;SDS011;10122;50.074;19.920;2022-09-17T06:25:23;7.47;;;4.82;;
19919;SDS011;10122;50.074;19.920;2022-09-17T06:27:50;7.55;;;5.10;;
19919;SDS011;10122;50.074;19.920;2022-09-17T06:30:16;6.60;;;4.68;;
19919;SDS011;10122;50.074;19.920;2022-09-17T06:32:41;5.35;;;4.60;;
19919;SDS011;10122;50.074;19.920;2022-09-17T06:35:07;6.80;;;4.78;;
19919;SDS011;10122;50.074;19.920;2022-09-17T06:37:33;6.00;;;4.22;;
19919;SDS011;10122;50.074;19.920;2022-09-17T06:40:00;5.43;;;4.55;;
19919;SDS011;10122;50.074;19.920;2022-09-17T06:42:26;8.15;;;4.40;;
19919;SDS011;10122;50.074;19.920;2022-09-17T06:44:52;6.32;;;4.10;;
19919;SDS011;10122;50.074;19.920;2022-09-17T06:47:18;5.95;;;4.10;;
19919;SDS011;10122;50.074;19.920;2022-09-17T06:49:44;4.82;;;3.88;;
19919;SDS011;10122;50.074;19.920;2022-09-17T06:52:10;5.97;;;4.00;;
19919;SDS011;10122;50.074;19.920;2022-09-17T06:54:36;4.85;;;3.60;;
19919;SDS011;10122;50.074;19.920;2022-09-17T06:57:01;6.18;;;3.65;;
19919;SDS011;10122;50.074;19.920;2022-09-17T06:59:27;4.60;;;3.58;;
19919;SDS011;10122;50.074;19.920;2022-09-17T07:01:53;7.10;;;3.65;;
19919;SDS011;10122;50.074;19.920;2022-09-17T07:04:18;5.35;;;3.67;;
19919;SDS011;10122;50.074;19.920;2022-09-17T07:06:44;6.18;;;4.03;;
19919;SDS011;10122;50.074;19.920;2022-09-17T07:09:10;5.93;;;3.92;;
19919;SDS011;10122;50.074;19.920;2022-09-17T07:11:37;4.55;;;3.42;;
19919;SDS011;10122;50.074;19.920;2022-09-17T07:14:03;4.55;;;3.53;;
19919;SDS011;10122;50.074;19.920;2022-09-17T07:16:31;5.43;;;3.65;;
19919;SDS011;10122;50.074;19.920;2022-09-17T07:19:00;5.75;;;4.00;;
19919;SDS011;10122;50.074;19.920;2022-09-17T07:21:29;5.15;;;3.95;;
19919;SDS011;10122;50.074;19.920;2022-09-17T07:23:54;7.18;;;3.72;;
19919;SDS011;10122;50.074;19.920;2022-09-17T07:26:20;5.13;;;3.58;;
19919;SDS011;10122;50.074;19.920;2022-09-17T07:28:46;4.57;;;3.45;;
19919;SDS011;10122;50.074;19.920;2022-09-17T07:31:16;5.57;;;3.53;;
19919;SDS011;10122;50.074;19.920;2022-09-17T07:33:42;5.35;;;3.20;;
19919;SDS011;10122;50.074;19.920;2022-09-17T07:36:12;6.93;;;3.40;;
19919;SDS011;10122;50.074;19.920;2022-09-17T07:38:38;4.97;;;3.30;;
19919;SDS011;10122;50.074;19.920;2022-09-17T07:41:06;5.55;;;3.47;;
19919;SDS011;10122;50.074;19.920;2022-09-17T07:43:37;4.20;;;2.95;;
19919;SDS011;10122;50.074;19.920;2022-09-17T07:46:04;5.72;;;3.30;;
19919;SDS011;10122;50.074;19.920;2022-09-17T07:48:30;5.32;;;2.95;;
19919;SDS011;10122;50.074;19.920;2022-09-17T07:50:57;6.95;;;3.20;;
19919;SDS011;10122;50.074;19.920;2022-09-17T07:53:23;5.15;;;3.20;;
19919;SDS011;10122;50.074;19.920;2022-09-17T07:55:56;4.63;;;2.90;;
19919;SDS011;10122;50.074;19.920;2022-09-17T07:58:26;5.25;;;2.80;;
19919;SDS011;10122;50.074;19.920;2022-09-17T08:00:58;5.85;;;3.45;;
19919;SDS011;10122;50.074;19.920;2022-09-17T08:03:28;5.05;;;3.05;;
19919;SDS011;10122;50.074;19.920;2022-09-17T08:05:59;4.22;;;2.92;;
19919;SDS011;10122;50.074;19.920;2022-09-17T08:08:30;4.55;;;3.03;;
19919;SDS011;10122;50.074;19.920;2022-09-17T08:11:04;5.07;;;2.90;;
19919;SDS011;10122;50.074;19.920;2022-09-17T08:13:40;3.88;;;3.00;;
19919;SDS011;10122;50.074;19.920;2022-09-17T08:16:10;5.68;;;3.10;;
19919;SDS011;10122;50.074;19.920;2022-09-17T08:18:37;3.70;;;2.88;;
19919;SDS011;10122;50.074;19.920;2022-09-17T08:21:04;3.97;;;3.00;;
19919;SDS011;10122;50.074;19.920;2022-09-17T08:23:32;3.33;;;2.92;;
19919;SDS011;10122;50.074;19.920;2022-09-17T08:25:59;3.88;;;2.83;;
19919;SDS011;10122;50.074;19.920;2022-09-17T08:28:26;3.65;;;3.22;;
19919;SDS011;10122;50.074;19.920;2022-09-17T08:30:53;4.38;;;2.70;;
19919;SDS011;10122;50.074;19.920;2022-09-17T08:33:23;5.63;;;2.83;;
19919;SDS011;10122;50.074;19.920;2022-09-17T08:35:52;4.93;;;2.63;;
19919;SDS011;10122;50.074;19.920;2022-09-17T08:38:19;5.28;;;2.90;;
19919;SDS011;10122;50.074;19.920;2022-09-17T08:40:54;3.97;;;3.03;;
19919;SDS011;10122;50.074;19.920;2022-09-17T08:43:36;3.25;;;2.45;;
19919;SDS011;10122;50.074;19.920;2022-09-17T08:46:20;3.15;;;2.53;;
19919;SDS011;10122;50.074;19.920;2022-09-17T08:48:50;3.45;;;2.45;;
19919;SDS011;10122;50.074;19.920;2022-09-17T08:54:04;3.08;;;2.25;;
19919;SDS011;10122;50.074;19.920;2022-09-17T08:56:41;3.20;;;2.60;;
19919;SDS011;10122;50.074;19.920;2022-09-17T08:59:15;3.92;;;2.42;;
19919;SDS011;10122;50.074;19.920;2022-09-17T09:09:40;5.75;;;2.40;;
19919;SDS011;10122;50.074;19.920;2022-09-17T09:12:33;3.78;;;2.30;;
19919;SDS011;10122;50.074;19.920;2022-09-17T09:15:01;4.35;;;2.58;;
19919;SDS011;10122;50.074;19.920;2022-09-17T09:17:33;3.50;;;2.60;;
19919;SDS011;10122;50.074;19.920;2022-09-17T09:20:11;3.88;;;2.58;;
19919;SDS011;10122;50.074;19.920;2022-09-17T09:23:00;3.35;;;2.47;;
19919;SDS011;10122;50.074;19.920;2022-09-17T09:25:36;5.57;;;2.28;;
19919;SDS011;10122;50.074;19.920;2022-09-17T09:28:13;3.22;;;2.38;;
19919;SDS011;10122;50.074;19.920;2022-09-17T09:33:40;4.35;;;2.65;;
19919;SDS011;10122;50.074;19.920;2022-09-17T09:36:12;3.22;;;2.53;;
19919;SDS011;10122;50.074;19.920;2022-09-17T09:38:42;3.90;;;2.50;;
19919;SDS011;10122;50.074;19.920;2022-09-17T09:41:13;4.22;;;2.72;;
19919;SDS011;10122;50.074;19.920;2022-09-17T09:43:44;2.90;;;2.38;;
19919;SDS011;10122;50.074;19.920;2022-09-17T09:59:05;3.38;;;2.20;;
19919;SDS011;10122;50.074;19.920;2022-09-17T10:01:32;3.85;;;2.45;;
19919;SDS011;10122;50.074;19.920;2022-09-17T10:04:01;2.60;;;2.08;;
19919;SDS011;10122;50.074;19.920;2022-09-17T10:06:53;2.92;;;2.15;;
19919;SDS011;10122;50.074;19.920;2022-09-17T10:09:44;3.63;;;2.40;;
19919;SDS011;10122;50.074;19.920;2022-09-17T10:14:39;3.83;;;2.30;;
19919;SDS011;10122;50.074;19.920;2022-09-17T10:19:38;2.88;;;2.20;;
19919;SDS011;10122;50.074;19.920;2022-09-17T10:22:22;4.20;;;2.20;;
19919;SDS011;10122;50.074;19.920;2022-09-17T10:25:03;3.75;;;2.13;;
19919;SDS011;10122;50.074;19.920;2022-09-17T10:27:31;4.68;;;2.40;;
19919;SDS011;10122;50.074;19.920;2022-09-17T10:32:32;3.00;;;2.05;;
19919;SDS011;10122;50.074;19.920;2022-09-17T10:35:44;2.67;;;2.10;;
19919;SDS011;10122;50.074;19.920;2022-09-17T10:37:48;3.90;;;2.20;;
19919;SDS011;10122;50.074;19.920;2022-09-17T10:42:48;4.60;;;2.15;;
19919;SDS011;10122;50.074;19.920;2022-09-17T10:45:25;4.93;;;2.50;;
19919;SDS011;10122;50.074;19.920;2022-09-17T10:47:52;3.53;;;2.20;;
19919;SDS011;10122;50.074;19.920;2022-09-17T10:50:20;3.20;;;2.08;;
19919;SDS011;10122;50.074;19.920;2022-09-17T10:53:06;3.15;;;2.05;;
19919;SDS011;10122;50.074;19.920;2022-09-17T10:55:54;3.13;;;2.03;;
19919;SDS011;10122;50.074;19.920;2022-09-17T11:12:16;3.92;;;1.92;;
19919;SDS011;10122;50.074;19.920;2022-09-17T11:34:49;4.22;;;2.50;;
19919;SDS011;10122;50.074;19.920;2022-09-17T11:39:58;3.35;;;2.30;;
19919;SDS011;10122;50.074;19.920;2022-09-17T11:42:31;3.65;;;2.20;;
19919;SDS011;10122;50.074;19.920;2022-09-17T11:45:23;2.72;;;2.25;;
19919;SDS011;10122;50.074;19.920;2022-09-17T11:47:55;3.53;;;2.40;;
19919;SDS011;10122;50.074;19.920;2022-09-17T11:50:36;3.78;;;2.50;;
19919;SDS011;10122;50.074;19.920;2022-09-17T11:55:56;3.92;;;2.75;;
19919;SDS011;10122;50.074;19.920;2022-09-17T12:01:06;5.05;;;2.60;;
19919;SDS011;10122;50.074;19.920;2022-09-17T12:03:41;6.13;;;2.65;;
19919;SDS011;10122;50.074;19.920;2022-09-17T12:06:16;4.70;;;2.88;;
19919;SDS011;10122;50.074;19.920;2022-09-17T12:08:52;4.40;;;2.67;;
19919;SDS011;10122;50.074;19.920;2022-09-17T12:11:45;5.18;;;2.95;;
19919;SDS011;10122;50.074;19.920;2022-09-17T12:14:23;3.67;;;2.60;;
19919;SDS011;10122;50.074;19.920;2022-09-17T12:16:57;4.55;;;2.88;;
19919;SDS011;10122;50.074;19.920;2022-09-17T12:19:33;5.32;;;3.00;;
19919;SDS011;10122;50.074;19.920;2022-09-17T12:24:39;6.63;;;2.92;;
19919;SDS011;10122;50.074;19.920;2022-09-17T12:30:04;8.20;;;3.40;;
19919;SDS011;10122;50.074;19.920;2022-09-17T12:47:03;4.53;;;3.00;;
19919;SDS011;10122;50.074;19.920;2022-09-17T12:49:59;5.78;;;3.10;;
19919;SDS011;10122;50.074;19.920;2022-09-17T12:55:38;4.07;;;2.92;;
19919;SDS011;10122;50.074;19.920;2022-09-17T13:00:54;5.18;;;3.13;;
19919;SDS011;10122;50.074;19.920;2022-09-17T13:03:38;4.47;;;3.20;;
19919;SDS011;10122;50.074;19.920;2022-09-17T13:22:26;4.07;;;2.97;;
19919;SDS011;10122;50.074;19.920;2022-09-17T13:25:15;6.35;;;3.42;;
19919;SDS011;10122;50.074;19.920;2022-09-17T13:27:43;5.50;;;3.30;;
19919;SDS011;10122;50.074;19.920;2022-09-17T13:30:11;5.25;;;3.53;;
19919;SDS011;10122;50.074;19.920;2022-09-17T13:32:42;4.78;;;3.33;;
19919;SDS011;10122;50.074;19.920;2022-09-17T13:37:39;5.38;;;3.28;;
19919;SDS011;10122;50.074;19.920;2022-09-17T13:45:28;5.68;;;3.20;;
19919;SDS011;10122;50.074;19.920;2022-09-17T13:50:43;4.03;;;2.97;;
19919;SDS011;10122;50.074;19.920;2022-09-17T13:55:44;4.97;;;2.78;;
19919;SDS011;10122;50.074;19.920;2022-09-17T14:27:03;5.20;;;3.08;;
19919;SDS011;10122;50.074;19.920;2022-09-17T14:30:03;4.68;;;3.30;;
19919;SDS011;10122;50.074;19.920;2022-09-17T14:37:53;4.43;;;3.05;;
19919;SDS011;10122;50.074;19.920;2022-09-17T14:40:22;5.20;;;3.40;;
19919;SDS011;10122;50.074;19.920;2022-09-17T14:42:50;5.22;;;3.50;;
19919;SDS011;10122;50.074;19.920;2022-09-17T14:45:20;4.82;;;3.15;;
19919;SDS011;10122;50.074;19.920;2022-09-17T14:48:15;5.32;;;3.10;;
19919;SDS011;10122;50.074;19.920;2022-09-17T14:53:41;5.07;;;3.35;;
19919;SDS011;10122;50.074;19.920;2022-09-17T14:56:07;5.32;;;3.00;;
19919;SDS011;10122;50.074;19.920;2022-09-17T14:58:48;5.07;;;3.10;;
19919;SDS011;10122;50.074;19.920;2022-09-17T15:01:22;3.83;;;3.42;;
19919;SDS011;10122;50.074;19.920;2022-09-17T15:03:49;5.03;;;3.33;;
19919;SDS011;10122;50.074;19.920;2022-09-17T15:06:43;4.55;;;3.30;;
19919;SDS011;10122;50.074;19.920;2022-09-17T15:09:16;7.03;;;3.40;;
19919;SDS011;10122;50.074;19.920;2022-09-17T15:11:53;6.30;;;3.55;;
19919;SDS011;10122;50.074;19.920;2022-09-17T15:14:21;5.80;;;3.50;;
19919;SDS011;10122;50.074;19.920;2022-09-17T15:16:52;4.47;;;3.35;;
19919;SDS011;10122;50.074;19.920;2022-09-17T15:27:18;5.82;;;3.50;;
19919;SDS011;10122;50.074;19.920;2022-09-17T15:29:57;6.45;;;3.70;;
19919;SDS011;10122;50.074;19.920;2022-09-17T15:32:26;6.75;;;3.58;;
19919;SDS011;10122;50.074;19.920;2022-09-17T15:37:49;4.97;;;3.80;;
19919;SDS011;10122;50.074;19.920;2022-09-17T15:40:24;6.07;;;3.47;;
19919;SDS011;10122;50.074;19.920;2022-09-17T15:43:47;6.25;;;3.50;;
19919;SDS011;10122;50.074;19.920;2022-09-17T15:49:23;7.85;;;3.92;;
19919;SDS011;10122;50.074;19.920;2022-09-17T15:54:43;6.75;;;3.70;;
19919;SDS011;10122;50.074;19.920;2022-09-17T15:57:11;8.07;;;3.92;;
19919;SDS011;10122;50.074;19.920;2022-09-17T15:59:39;6.22;;;4.03;;
19919;SDS011;10122;50.074;19.920;2022-09-17T16:02:08;6.03;;;3.65;;
19919;SDS011;10122;50.074;19.920;2022-09-17T16:07:45;6.18;;;3.85;;
19919;SDS011;10122;50.074;19.920;2022-09-17T16:10:11;6.75;;;4.40;;
19919;SDS011;10122;50.074;19.920;2022-09-17T16:12:39;5.90;;;4.10;;
19919;SDS011;10122;50.074;19.920;2022-09-17T16:15:05;6.38;;;4.05;;
19919;SDS011;10122;50.074;19.920;2022-09-17T16:17:42;6.72;;;4.10;;
19919;SDS011;10122;50.074;19.920;2022-09-17T16:22:40;7.68;;;4.10;;
19919;SDS011;10122;50.074;19.920;2022-09-17T16:25:06;7.15;;;4.32;;
19919;SDS011;10122;50.074;19.920;2022-09-17T16:27:34;5.85;;;4.25;;
19919;SDS011;10122;50.074;19.920;2022-09-17T16:30:12;6.75;;;4.43;;
19919;SDS011;10122;50.074;19.920;2022-09-17T16:32:39;6.00;;;4.22;;
19919;SDS011;10122;50.074;19.920;2022-09-17T16:35:05;7.20;;;4.88;;
19919;SDS011;10122;50.074;19.920;2022-09-17T16:37:31;7.32;;;4.65;;
19919;SDS011;10122;50.074;19.920;2022-09-17T16:39:57;9.40;;;4.68;;
19919;SDS011;10122;50.074;19.920;2022-09-17T16:42:24;7.72;;;4.82;;
19919;SDS011;10122;50.074;19.920;2022-09-17T16:44:53;8.68;;;5.18;;
19919;SDS011;10122;50.074;19.920;2022-09-17T16:47:19;8.15;;;5.40;;
19919;SDS011;10122;50.074;19.920;2022-09-17T16:49:45;8.40;;;5.28;;
19919;SDS011;10122;50.074;19.920;2022-09-17T16:52:10;8.20;;;5.00;;
19919;SDS011;10122;50.074;19.920;2022-09-17T16:54:36;7.93;;;4.68;;
19919;SDS011;10122;50.074;19.920;2022-09-17T16:57:01;7.03;;;5.00;;
19919;SDS011;10122;50.074;19.920;2022-09-17T16:59:27;8.65;;;4.82;;
19919;SDS011;10122;50.074;19.920;2022-09-17T17:01:53;6.45;;;4.70;;
19919;SDS011;10122;50.074;19.920;2022-09-17T17:04:18;7.50;;;5.10;;
19919;SDS011;10122;50.074;19.920;2022-09-17T17:06:45;6.57;;;5.03;;
19919;SDS011;10122;50.074;19.920;2022-09-17T17:09:10;6.50;;;5.10;;
19919;SDS011;10122;50.074;19.920;2022-09-17T17:11:36;7.63;;;5.13;;
19919;SDS011;10122;50.074;19.920;2022-09-17T17:14:02;6.82;;;4.80;;
19919;SDS011;10122;50.074;19.920;2022-09-17T17:16:29;8.57;;;5.22;;
19919;SDS011;10122;50.074;19.920;2022-09-17T17:18:55;6.60;;;4.70;;
19919;SDS011;10122;50.074;19.920;2022-09-17T17:21:21;9.45;;;5.13;;
19919;SDS011;10122;50.074;19.920;2022-09-17T17:23:47;7.45;;;5.18;;
19919;SDS011;10122;50.074;19.920;2022-09-17T17:26:15;8.13;;;5.53;;
19919;SDS011;10122;50.074;19.920;2022-09-17T17:28:41;9.65;;;5.63;;
19919;SDS011;10122;50.074;19.920;2022-09-17T17:31:08;7.65;;;5.18;;
19919;SDS011;10122;50.074;19.920;2022-09-17T17:33:34;9.10;;;5.47;;
19919;SDS011;10122;50.074;19.920;2022-09-17T17:36:00;7.53;;;5.13;;
19919;SDS011;10122;50.074;19.920;2022-09-17T17:38:27;7.53;;;5.18;;
19919;SDS011;10122;50.074;19.920;2022-09-17T17:41:03;7.35;;;5.25;;
19919;SDS011;10122;50.074;19.920;2022-09-17T17:43:39;8.13;;;5.00;;
19919;SDS011;10122;50.074;19.920;2022-09-17T17:46:06;7.40;;;5.38;;
19919;SDS011;10122;50.074;19.920;2022-09-17T17:48:33;8.57;;;5.20;;
19919;SDS011;10122;50.074;19.920;2022-09-17T17:51:06;7.80;;;5.60;;
19919;SDS011;10122;50.074;19.920;2022-09-17T17:53:33;9.10;;;5.68;;
19919;SDS011;10122;50.074;19.920;2022-09-17T17:56:00;7.63;;;5.60;;
19919;SDS011;10122;50.074;19.920;2022-09-17T17:58:29;9.23;;;5.90;;
19919;SDS011;10122;50.074;19.920;2022-09-17T18:00:56;7.55;;;5.40;;
19919;SDS011;10122;50.074;19.920;2022-09-17T18:03:22;8.77;;;6.07;;
19919;SDS011;10122;50.074;19.920;2022-09-17T18:05:53;9.45;;;6.45;;
19919;SDS011;10122;50.074;19.920;2022-09-17T18:08:21;8.77;;;6.32;;
19919;SDS011;10122;50.074;19.920;2022-09-17T18:10:54;9.15;;;6.38;;
19919;SDS011;10122;50.074;19.920;2022-09-17T18:13:22;9.05;;;6.18;;
19919;SDS011;10122;50.074;19.920;2022-09-17T18:15:51;9.55;;;6.18;;
19919;SDS011;10122;50.074;19.920;2022-09-17T18:18:21;9.70;;;6.35;;
19919;SDS011;10122;50.074;19.920;2022-09-17T18:20:48;10.55;;;6.40;;
19919;SDS011;10122;50.074;19.920;2022-09-17T18:23:15;9.50;;;7.47;;
19919;SDS011;10122;50.074;19.920;2022-09-17T18:25:41;9.52;;;6.97;;
19919;SDS011;10122;50.074;19.920;2022-09-17T18:28:15;9.80;;;7.00;;